sensor_id;sensor_type;location;lat;lon;timestamp;P1;durP1;ratioP1;P2;durP2;ratioP2
59512;SDS011;45330;51.634;5.562;2023-08-20T00:01:30;21.13;;;10.52;;
59512;SDS011;45330;51.634;5.562;2023-08-20T00:03:55;21.15;;;9.98;;
59512;SDS011;45330;51.634;5.562;2023-08-20T00:06:21;21.42;;;10.73;;
59512;SDS011;45330;51.634;5.562;2023-08-20T00:08:47;23.95;;;11.93;;
59512;SDS011;45330;51.634;5.562;2023-08-20T00:11:13;20.98;;;10.73;;
59512;SDS011;45330;51.634;5.562;2023-08-20T00:13:39;20.23;;;10.60;;
59512;SDS011;45330;51.634;5.562;2023-08-20T00:16:05;21.80;;;11.95;;
59512;SDS011;45330;51.634;5.562;2023-08-20T00:18:31;22.73;;;12.05;;
59512;SDS011;45330;51.634;5.562;2023-08-20T00:20:57;23.08;;;11.45;;
59512;SDS011;45330;51.634;5.562;2023-08-20T00:23:25;21.63;;;11.32;;
59512;SDS011;45330;51.634;5.562;2023-08-20T00:25:51;23.20;;;12.18;;
59512;SDS011;45330;51.634;5.562;2023-08-20T00:28:18;19.77;;;10.63;;
59512;SDS011;45330;51.634;5.562;2023-08-20T00:30:44;20.70;;;11.18;;
59512;SDS011;45330;51.634;5.562;2023-08-20T00:33:10;21.98;;;12.07;;
59512;SDS011;45330;51.634;5.562;2023-08-20T00:35:35;21.30;;;11.77;;
59512;SDS011;45330;51.634;5.562;2023-08-20T00:38:01;23.38;;;12.77;;
59512;SDS011;45330;51.634;5.562;2023-08-20T00:40:27;21.73;;;12.60;;
59512;SDS011;45330;51.634;5.562;2023-08-20T00:42:53;20.83;;;12.15;;
59512;SDS011;45330;51.634;5.562;2023-08-20T00:45:18;23.52;;;13.25;;
59512;SDS011;45330;51.634;5.562;2023-08-20T00:47:43;22.30;;;11.75;;
59512;SDS011;45330;51.634;5.562;2023-08-20T00:50:09;21.45;;;11.70;;
59512;SDS011;45330;51.634;5.562;2023-08-20T00:52:35;20.77;;;12.10;;
59512;SDS011;45330;51.634;5.562;2023-08-20T00:55:06;21.67;;;12.20;;
59512;SDS011;45330;51.634;5.562;2023-08-20T00:57:34;21.20;;;12.50;;
59512;SDS011;45330;51.634;5.562;2023-08-20T01:00:00;22.42;;;12.80;;
59512;SDS011;45330;51.634;5.562;2023-08-20T01:02:26;24.38;;;13.90;;
59512;SDS011;45330;51.634;5.562;2023-08-20T01:04:51;22.98;;;13.55;;
59512;SDS011;45330;51.634;5.562;2023-08-20T01:10:42;23.10;;;13.95;;
59512;SDS011;45330;51.634;5.562;2023-08-20T01:13:18;22.05;;;13.10;;
59512;SDS011;45330;51.634;5.562;2023-08-20T01:15:44;20.80;;;12.15;;
59512;SDS011;45330;51.634;5.562;2023-08-20T01:18:09;21.90;;;13.18;;
59512;SDS011;45330;51.634;5.562;2023-08-20T01:20:36;21.70;;;11.75;;
59512;SDS011;45330;51.634;5.562;2023-08-20T01:23:24;21.23;;;11.38;;
59512;SDS011;45330;51.634;5.562;2023-08-20T01:26:21;20.67;;;10.65;;
59512;SDS011;45330;51.634;5.562;2023-08-20T01:28:56;20.10;;;9.73;;
59512;SDS011;45330;51.634;5.562;2023-08-20T01:31:21;22.85;;;10.82;;
59512;SDS011;45330;51.634;5.562;2023-08-20T01:33:48;22.77;;;10.60;;
59512;SDS011;45330;51.634;5.562;2023-08-20T01:36:14;19.67;;;10.52;;
59512;SDS011;45330;51.634;5.562;2023-08-20T01:38:39;23.35;;;10.50;;
59512;SDS011;45330;51.634;5.562;2023-08-20T01:41:04;19.30;;;9.75;;
59512;SDS011;45330;51.634;5.562;2023-08-20T01:43:30;20.35;;;10.50;;
59512;SDS011;45330;51.634;5.562;2023-08-20T01:45:55;20.05;;;10.35;;
59512;SDS011;45330;51.634;5.562;2023-08-20T01:48:21;21.85;;;10.07;;
59512;SDS011;45330;51.634;5.562;2023-08-20T01:50:46;23.00;;;10.55;;
59512;SDS011;45330;51.634;5.562;2023-08-20T01:53:11;22.63;;;10.82;;
59512;SDS011;45330;51.634;5.562;2023-08-20T01:55:37;21.63;;;10.50;;
59512;SDS011;45330;51.634;5.562;2023-08-20T01:58:03;23.48;;;10.88;;
59512;SDS011;45330;51.634;5.562;2023-08-20T02:00:28;21.10;;;10.93;;
59512;SDS011;45330;51.634;5.562;2023-08-20T02:02:55;22.13;;;10.68;;
59512;SDS011;45330;51.634;5.562;2023-08-20T02:05:21;22.95;;;10.73;;
59512;SDS011;45330;51.634;5.562;2023-08-20T02:07:46;22.83;;;10.48;;
59512;SDS011;45330;51.634;5.562;2023-08-20T02:10:11;19.23;;;9.70;;
59512;SDS011;45330;51.634;5.562;2023-08-20T02:12:37;19.30;;;10.05;;
59512;SDS011;45330;51.634;5.562;2023-08-20T02:15:02;19.25;;;8.75;;
59512;SDS011;45330;51.634;5.562;2023-08-20T02:17:29;19.02;;;9.25;;
59512;SDS011;45330;51.634;5.562;2023-08-20T02:19:54;20.90;;;9.65;;
59512;SDS011;45330;51.634;5.562;2023-08-20T02:22:19;21.52;;;9.90;;
59512;SDS011;45330;51.634;5.562;2023-08-20T02:24:46;22.13;;;8.95;;
59512;SDS011;45330;51.634;5.562;2023-08-20T02:27:11;21.70;;;9.13;;
59512;SDS011;45330;51.634;5.562;2023-08-20T02:29:36;19.08;;;8.70;;
59512;SDS011;45330;51.634;5.562;2023-08-20T02:32:02;20.52;;;8.95;;
59512;SDS011;45330;51.634;5.562;2023-08-20T02:34:27;20.65;;;9.05;;
59512;SDS011;45330;51.634;5.562;2023-08-20T02:36:52;22.20;;;9.65;;
59512;SDS011;45330;51.634;5.562;2023-08-20T02:39:18;20.50;;;9.43;;
59512;SDS011;45330;51.634;5.562;2023-08-20T02:41:43;19.27;;;9.13;;
59512;SDS011;45330;51.634;5.562;2023-08-20T02:44:09;22.08;;;10.73;;
59512;SDS011;45330;51.634;5.562;2023-08-20T02:46:34;21.08;;;9.85;;
59512;SDS011;45330;51.634;5.562;2023-08-20T02:49:00;21.35;;;10.15;;
59512;SDS011;45330;51.634;5.562;2023-08-20T02:51:25;21.25;;;10.38;;
59512;SDS011;45330;51.634;5.562;2023-08-20T02:53:51;19.40;;;9.88;;
59512;SDS011;45330;51.634;5.562;2023-08-20T02:56:16;19.83;;;9.80;;
59512;SDS011;45330;51.634;5.562;2023-08-20T02:58:41;19.88;;;9.80;;
59512;SDS011;45330;51.634;5.562;2023-08-20T03:01:07;20.33;;;9.63;;
59512;SDS011;45330;51.634;5.562;2023-08-20T03:03:43;20.90;;;9.35;;
59512;SDS011;45330;51.634;5.562;2023-08-20T03:06:08;20.42;;;10.35;;
59512;SDS011;45330;51.634;5.562;2023-08-20T03:08:33;21.35;;;9.80;;
59512;SDS011;45330;51.634;5.562;2023-08-20T03:10:59;20.65;;;10.75;;
59512;SDS011;45330;51.634;5.562;2023-08-20T03:13:24;20.13;;;11.07;;
59512;SDS011;45330;51.634;5.562;2023-08-20T03:15:49;21.55;;;11.07;;
59512;SDS011;45330;51.634;5.562;2023-08-20T03:18:15;20.90;;;10.77;;
59512;SDS011;45330;51.634;5.562;2023-08-20T03:20:40;22.95;;;10.40;;
59512;SDS011;45330;51.634;5.562;2023-08-20T03:23:06;21.10;;;11.15;;
59512;SDS011;45330;51.634;5.562;2023-08-20T03:25:31;27.70;;;18.00;;
59512;SDS011;45330;51.634;5.562;2023-08-20T03:27:56;24.42;;;12.15;;
59512;SDS011;45330;51.634;5.562;2023-08-20T03:30:22;23.50;;;12.85;;
59512;SDS011;45330;51.634;5.562;2023-08-20T03:32:47;24.63;;;15.10;;
59512;SDS011;45330;51.634;5.562;2023-08-20T03:35:12;23.83;;;12.77;;
59512;SDS011;45330;51.634;5.562;2023-08-20T03:37:38;22.27;;;13.25;;
59512;SDS011;45330;51.634;5.562;2023-08-20T03:40:03;24.58;;;14.98;;
59512;SDS011;45330;51.634;5.562;2023-08-20T03:42:30;23.95;;;12.70;;
59512;SDS011;45330;51.634;5.562;2023-08-20T03:44:55;22.30;;;13.38;;
59512;SDS011;45330;51.634;5.562;2023-08-20T03:47:21;21.02;;;11.68;;
59512;SDS011;45330;51.634;5.562;2023-08-20T03:49:46;21.63;;;10.68;;
59512;SDS011;45330;51.634;5.562;2023-08-20T03:52:15;22.25;;;11.35;;
59512;SDS011;45330;51.634;5.562;2023-08-20T03:54:41;20.70;;;11.55;;
59512;SDS011;45330;51.634;5.562;2023-08-20T03:57:06;20.30;;;11.07;;
59512;SDS011;45330;51.634;5.562;2023-08-20T03:59:32;20.75;;;11.68;;
59512;SDS011;45330;51.634;5.562;2023-08-20T04:01:58;20.73;;;11.27;;
59512;SDS011;45330;51.634;5.562;2023-08-20T04:04:23;20.63;;;10.75;;
59512;SDS011;45330;51.634;5.562;2023-08-20T04:06:49;21.98;;;11.52;;
59512;SDS011;45330;51.634;5.562;2023-08-20T04:09:22;20.80;;;11.48;;
59512;SDS011;45330;51.634;5.562;2023-08-20T04:11:48;23.65;;;12.02;;
59512;SDS011;45330;51.634;5.562;2023-08-20T04:14:14;21.60;;;11.32;;
59512;SDS011;45330;51.634;5.562;2023-08-20T04:16:39;22.80;;;12.35;;
59512;SDS011;45330;51.634;5.562;2023-08-20T04:19:05;20.67;;;11.13;;
59512;SDS011;45330;51.634;5.562;2023-08-20T04:21:30;20.75;;;11.05;;
59512;SDS011;45330;51.634;5.562;2023-08-20T04:23:55;19.80;;;11.07;;
59512;SDS011;45330;51.634;5.562;2023-08-20T04:26:21;22.60;;;11.88;;
59512;SDS011;45330;51.634;5.562;2023-08-20T04:28:46;20.98;;;11.20;;
59512;SDS011;45330;51.634;5.562;2023-08-20T04:31:11;22.15;;;11.85;;
59512;SDS011;45330;51.634;5.562;2023-08-20T04:33:37;21.17;;;11.38;;
59512;SDS011;45330;51.634;5.562;2023-08-20T04:36:02;22.83;;;11.45;;
59512;SDS011;45330;51.634;5.562;2023-08-20T04:38:28;20.40;;;10.85;;
59512;SDS011;45330;51.634;5.562;2023-08-20T04:40:53;20.83;;;11.75;;
59512;SDS011;45330;51.634;5.562;2023-08-20T04:43:18;20.02;;;11.38;;
59512;SDS011;45330;51.634;5.562;2023-08-20T04:45:44;21.85;;;11.55;;
59512;SDS011;45330;51.634;5.562;2023-08-20T04:48:09;20.92;;;11.00;;
59512;SDS011;45330;51.634;5.562;2023-08-20T04:50:34;21.58;;;11.38;;
59512;SDS011;45330;51.634;5.562;2023-08-20T04:53:00;20.02;;;11.52;;
59512;SDS011;45330;51.634;5.562;2023-08-20T04:55:26;22.63;;;12.15;;
59512;SDS011;45330;51.634;5.562;2023-08-20T04:57:52;22.55;;;11.82;;
59512;SDS011;45330;51.634;5.562;2023-08-20T05:00:17;22.90;;;12.25;;
59512;SDS011;45330;51.634;5.562;2023-08-20T05:02:43;24.15;;;12.07;;
59512;SDS011;45330;51.634;5.562;2023-08-20T05:05:08;22.60;;;11.55;;
59512;SDS011;45330;51.634;5.562;2023-08-20T05:07:34;22.90;;;11.93;;
59512;SDS011;45330;51.634;5.562;2023-08-20T05:10:00;20.73;;;11.52;;
59512;SDS011;45330;51.634;5.562;2023-08-20T05:12:25;22.52;;;11.30;;
59512;SDS011;45330;51.634;5.562;2023-08-20T05:14:50;22.38;;;11.38;;
59512;SDS011;45330;51.634;5.562;2023-08-20T05:17:16;21.92;;;11.15;;
59512;SDS011;45330;51.634;5.562;2023-08-20T05:19:41;20.73;;;11.75;;
59512;SDS011;45330;51.634;5.562;2023-08-20T05:22:06;21.15;;;11.18;;
59512;SDS011;45330;51.634;5.562;2023-08-20T05:24:32;20.73;;;10.63;;
59512;SDS011;45330;51.634;5.562;2023-08-20T05:27:08;22.52;;;11.10;;
59512;SDS011;45330;51.634;5.562;2023-08-20T05:29:35;23.42;;;10.85;;
59512;SDS011;45330;51.634;5.562;2023-08-20T05:32:02;19.88;;;9.98;;
59512;SDS011;45330;51.634;5.562;2023-08-20T05:34:27;20.88;;;9.85;;
59512;SDS011;45330;51.634;5.562;2023-08-20T05:36:52;19.15;;;8.57;;
59512;SDS011;45330;51.634;5.562;2023-08-20T05:39:18;17.63;;;7.47;;
59512;SDS011;45330;51.634;5.562;2023-08-20T05:41:43;20.67;;;7.75;;
59512;SDS011;45330;51.634;5.562;2023-08-20T05:44:09;16.85;;;7.03;;
59512;SDS011;45330;51.634;5.562;2023-08-20T05:46:35;17.25;;;6.53;;
59512;SDS011;45330;51.634;5.562;2023-08-20T05:49:00;17.27;;;6.60;;
59512;SDS011;45330;51.634;5.562;2023-08-20T05:51:26;17.58;;;6.82;;
59512;SDS011;45330;51.634;5.562;2023-08-20T05:53:51;17.00;;;6.70;;
59512;SDS011;45330;51.634;5.562;2023-08-20T05:56:16;17.33;;;5.93;;
59512;SDS011;45330;51.634;5.562;2023-08-20T05:58:42;18.42;;;6.07;;
59512;SDS011;45330;51.634;5.562;2023-08-20T06:01:07;16.00;;;6.22;;
59512;SDS011;45330;51.634;5.562;2023-08-20T06:03:32;15.20;;;5.28;;
59512;SDS011;45330;51.634;5.562;2023-08-20T06:05:58;17.20;;;5.72;;
59512;SDS011;45330;51.634;5.562;2023-08-20T06:08:23;13.90;;;5.28;;
59512;SDS011;45330;51.634;5.562;2023-08-20T06:10:49;14.15;;;4.88;;
59512;SDS011;45330;51.634;5.562;2023-08-20T06:13:15;17.85;;;5.32;;
59512;SDS011;45330;51.634;5.562;2023-08-20T06:15:40;15.15;;;5.38;;
59512;SDS011;45330;51.634;5.562;2023-08-20T06:18:06;11.57;;;5.00;;
59512;SDS011;45330;51.634;5.562;2023-08-20T06:20:32;14.88;;;4.93;;
59512;SDS011;45330;51.634;5.562;2023-08-20T06:22:57;16.20;;;4.78;;
59512;SDS011;45330;51.634;5.562;2023-08-20T06:25:22;14.95;;;5.07;;
59512;SDS011;45330;51.634;5.562;2023-08-20T06:27:48;14.88;;;5.18;;
59512;SDS011;45330;51.634;5.562;2023-08-20T06:30:13;18.40;;;5.20;;
59512;SDS011;45330;51.634;5.562;2023-08-20T06:32:39;16.00;;;5.10;;
59512;SDS011;45330;51.634;5.562;2023-08-20T06:35:04;16.73;;;5.47;;
59512;SDS011;45330;51.634;5.562;2023-08-20T06:37:30;15.73;;;5.30;;
59512;SDS011;45330;51.634;5.562;2023-08-20T06:39:55;17.88;;;5.15;;
59512;SDS011;45330;51.634;5.562;2023-08-20T06:42:21;14.82;;;4.95;;
59512;SDS011;45330;51.634;5.562;2023-08-20T06:44:46;18.85;;;5.10;;
59512;SDS011;45330;51.634;5.562;2023-08-20T06:47:12;15.77;;;4.25;;
59512;SDS011;45330;51.634;5.562;2023-08-20T06:49:38;18.67;;;5.25;;
59512;SDS011;45330;51.634;5.562;2023-08-20T06:52:03;19.33;;;4.78;;
59512;SDS011;45330;51.634;5.562;2023-08-20T06:54:29;20.23;;;5.18;;
59512;SDS011;45330;51.634;5.562;2023-08-20T06:56:54;17.98;;;4.88;;
59512;SDS011;45330;51.634;5.562;2023-08-20T06:59:20;17.85;;;4.60;;
59512;SDS011;45330;51.634;5.562;2023-08-20T07:01:45;11.48;;;3.97;;
59512;SDS011;45330;51.634;5.562;2023-08-20T07:04:10;16.73;;;4.50;;
59512;SDS011;45330;51.634;5.562;2023-08-20T07:06:38;13.82;;;4.00;;
59512;SDS011;45330;51.634;5.562;2023-08-20T07:09:03;16.20;;;3.85;;
59512;SDS011;45330;51.634;5.562;2023-08-20T07:11:29;19.67;;;4.28;;
59512;SDS011;45330;51.634;5.562;2023-08-20T07:13:54;17.90;;;4.10;;
59512;SDS011;45330;51.634;5.562;2023-08-20T07:16:20;13.23;;;3.40;;
59512;SDS011;45330;51.634;5.562;2023-08-20T07:18:45;16.23;;;3.63;;
59512;SDS011;45330;51.634;5.562;2023-08-20T07:21:10;14.57;;;4.00;;
59512;SDS011;45330;51.634;5.562;2023-08-20T07:23:36;13.50;;;3.42;;
59512;SDS011;45330;51.634;5.562;2023-08-20T07:26:08;15.50;;;3.53;;
59512;SDS011;45330;51.634;5.562;2023-08-20T07:28:34;12.23;;;3.30;;
59512;SDS011;45330;51.634;5.562;2023-08-20T07:31:18;16.23;;;3.20;;
59512;SDS011;45330;51.634;5.562;2023-08-20T07:33:47;12.73;;;3.20;;
59512;SDS011;45330;51.634;5.562;2023-08-20T07:36:14;12.48;;;3.47;;
59512;SDS011;45330;51.634;5.562;2023-08-20T07:38:40;13.98;;;3.80;;
59512;SDS011;45330;51.634;5.562;2023-08-20T07:41:07;15.02;;;3.15;;
59512;SDS011;45330;51.634;5.562;2023-08-20T07:43:37;11.68;;;3.15;;
59512;SDS011;45330;51.634;5.562;2023-08-20T07:46:03;13.02;;;3.20;;
59512;SDS011;45330;51.634;5.562;2023-08-20T07:48:29;9.77;;;3.00;;
59512;SDS011;45330;51.634;5.562;2023-08-20T07:50:54;13.15;;;3.35;;
59512;SDS011;45330;51.634;5.562;2023-08-20T07:53:19;15.25;;;3.97;;
59512;SDS011;45330;51.634;5.562;2023-08-20T07:55:45;12.48;;;3.13;;
59512;SDS011;45330;51.634;5.562;2023-08-20T07:58:10;13.90;;;3.28;;
59512;SDS011;45330;51.634;5.562;2023-08-20T08:00:36;14.57;;;3.25;;
59512;SDS011;45330;51.634;5.562;2023-08-20T08:03:01;12.95;;;3.00;;
59512;SDS011;45330;51.634;5.562;2023-08-20T08:05:27;8.77;;;2.80;;
59512;SDS011;45330;51.634;5.562;2023-08-20T08:07:53;12.85;;;3.00;;
59512;SDS011;45330;51.634;5.562;2023-08-20T08:10:18;15.85;;;3.10;;
59512;SDS011;45330;51.634;5.562;2023-08-20T08:12:44;14.20;;;3.20;;
59512;SDS011;45330;51.634;5.562;2023-08-20T08:15:09;12.65;;;3.20;;
59512;SDS011;45330;51.634;5.562;2023-08-20T08:17:34;11.73;;;2.90;;
59512;SDS011;45330;51.634;5.562;2023-08-20T08:20:00;9.25;;;3.10;;
59512;SDS011;45330;51.634;5.562;2023-08-20T08:22:25;14.23;;;3.83;;
59512;SDS011;45330;51.634;5.562;2023-08-20T08:24:51;13.13;;;3.33;;
59512;SDS011;45330;51.634;5.562;2023-08-20T08:27:16;12.63;;;3.60;;
59512;SDS011;45330;51.634;5.562;2023-08-20T08:29:41;12.00;;;3.50;;
59512;SDS011;45330;51.634;5.562;2023-08-20T08:32:07;10.25;;;3.28;;
59512;SDS011;45330;51.634;5.562;2023-08-20T08:34:32;11.63;;;3.53;;
59512;SDS011;45330;51.634;5.562;2023-08-20T08:36:58;13.27;;;3.60;;
59512;SDS011;45330;51.634;5.562;2023-08-20T08:39:23;12.23;;;3.53;;
59512;SDS011;45330;51.634;5.562;2023-08-20T08:41:49;10.38;;;3.30;;
59512;SDS011;45330;51.634;5.562;2023-08-20T08:44:16;9.13;;;3.28;;
59512;SDS011;45330;51.634;5.562;2023-08-20T08:46:42;9.63;;;3.30;;
59512;SDS011;45330;51.634;5.562;2023-08-20T08:49:07;10.43;;;2.97;;
59512;SDS011;45330;51.634;5.562;2023-08-20T08:51:33;11.23;;;2.80;;
59512;SDS011;45330;51.634;5.562;2023-08-20T08:54:01;8.00;;;2.53;;
59512;SDS011;45330;51.634;5.562;2023-08-20T08:56:27;12.95;;;2.83;;
59512;SDS011;45330;51.634;5.562;2023-08-20T08:58:53;14.30;;;3.15;;
59512;SDS011;45330;51.634;5.562;2023-08-20T09:01:19;9.93;;;2.50;;
59512;SDS011;45330;51.634;5.562;2023-08-20T09:03:45;9.20;;;2.30;;
59512;SDS011;45330;51.634;5.562;2023-08-20T09:06:12;8.35;;;2.40;;
59512;SDS011;45330;51.634;5.562;2023-08-20T09:08:37;8.60;;;2.45;;
59512;SDS011;45330;51.634;5.562;2023-08-20T09:11:03;8.82;;;2.50;;
59512;SDS011;45330;51.634;5.562;2023-08-20T09:13:42;6.00;;;2.30;;
59512;SDS011;45330;51.634;5.562;2023-08-20T09:16:09;13.88;;;2.67;;
59512;SDS011;45330;51.634;5.562;2023-08-20T09:18:40;7.93;;;2.40;;
59512;SDS011;45330;51.634;5.562;2023-08-20T09:21:10;9.65;;;2.20;;
59512;SDS011;45330;51.634;5.562;2023-08-20T09:23:36;8.07;;;2.00;;
59512;SDS011;45330;51.634;5.562;2023-08-20T09:26:03;8.10;;;2.20;;
59512;SDS011;45330;51.634;5.562;2023-08-20T09:28:53;6.50;;;2.00;;
59512;SDS011;45330;51.634;5.562;2023-08-20T09:31:19;9.52;;;2.35;;
59512;SDS011;45330;51.634;5.562;2023-08-20T09:33:51;7.32;;;2.40;;
59512;SDS011;45330;51.634;5.562;2023-08-20T09:36:17;7.40;;;2.10;;
59512;SDS011;45330;51.634;5.562;2023-08-20T09:38:43;7.53;;;1.83;;
59512;SDS011;45330;51.634;5.562;2023-08-20T09:41:08;8.68;;;1.90;;
59512;SDS011;45330;51.634;5.562;2023-08-20T09:43:35;7.75;;;1.83;;
59512;SDS011;45330;51.634;5.562;2023-08-20T09:46:03;7.60;;;2.10;;
59512;SDS011;45330;51.634;5.562;2023-08-20T09:48:30;9.35;;;1.80;;
59512;SDS011;45330;51.634;5.562;2023-08-20T09:50:59;5.63;;;1.60;;
59512;SDS011;45330;51.634;5.562;2023-08-20T09:53:36;3.10;;;1.42;;
59512;SDS011;45330;51.634;5.562;2023-08-20T09:56:09;3.30;;;0.93;;
59512;SDS011;45330;51.634;5.562;2023-08-20T09:58:39;2.53;;;0.70;;
59512;SDS011;45330;51.634;5.562;2023-08-20T10:01:06;2.55;;;1.20;;
59512;SDS011;45330;51.634;5.562;2023-08-20T10:03:32;6.43;;;1.63;;
59512;SDS011;45330;51.634;5.562;2023-08-20T10:05:58;3.80;;;1.17;;
59512;SDS011;45330;51.634;5.562;2023-08-20T10:08:25;5.40;;;1.40;;
59512;SDS011;45330;51.634;5.562;2023-08-20T10:10:52;3.65;;;1.55;;
59512;SDS011;45330;51.634;5.562;2023-08-20T10:13:17;1.55;;;1.20;;
59512;SDS011;45330;51.634;5.562;2023-08-20T10:15:43;3.42;;;1.27;;
59512;SDS011;45330;51.634;5.562;2023-08-20T10:18:10;3.85;;;1.13;;
59512;SDS011;45330;51.634;5.562;2023-08-20T10:20:36;2.70;;;1.30;;
59512;SDS011;45330;51.634;5.562;2023-08-20T10:23:04;4.35;;;1.65;;
59512;SDS011;45330;51.634;5.562;2023-08-20T10:25:30;3.70;;;1.15;;
59512;SDS011;45330;51.634;5.562;2023-08-20T10:28:19;1.80;;;1.17;;
59512;SDS011;45330;51.634;5.562;2023-08-20T10:33:33;4.57;;;1.42;;
59512;SDS011;45330;51.634;5.562;2023-08-20T10:36:06;3.35;;;1.27;;
59512;SDS011;45330;51.634;5.562;2023-08-20T10:38:38;5.13;;;1.52;;
59512;SDS011;45330;51.634;5.562;2023-08-20T10:41:07;4.35;;;1.30;;
59512;SDS011;45330;51.634;5.562;2023-08-20T10:49:06;2.95;;;1.13;;
59512;SDS011;45330;51.634;5.562;2023-08-20T10:51:35;2.55;;;1.10;;
59512;SDS011;45330;51.634;5.562;2023-08-20T10:56:44;3.72;;;1.08;;
59512;SDS011;45330;51.634;5.562;2023-08-20T11:01:53;5.38;;;1.60;;
59512;SDS011;45330;51.634;5.562;2023-08-20T11:04:20;6.25;;;1.50;;
59512;SDS011;45330;51.634;5.562;2023-08-20T11:06:52;3.00;;;1.13;;
59512;SDS011;45330;51.634;5.562;2023-08-20T11:09:21;3.83;;;1.20;;
59512;SDS011;45330;51.634;5.562;2023-08-20T11:11:47;4.63;;;1.30;;
59512;SDS011;45330;51.634;5.562;2023-08-20T11:14:13;6.22;;;1.10;;
59512;SDS011;45330;51.634;5.562;2023-08-20T11:16:39;4.82;;;1.27;;
59512;SDS011;45330;51.634;5.562;2023-08-20T11:19:05;7.65;;;1.30;;
59512;SDS011;45330;51.634;5.562;2023-08-20T11:21:43;5.75;;;1.70;;
59512;SDS011;45330;51.634;5.562;2023-08-20T11:24:09;3.80;;;1.60;;
59512;SDS011;45330;51.634;5.562;2023-08-20T11:26:37;7.00;;;1.40;;
59512;SDS011;45330;51.634;5.562;2023-08-20T11:29:07;3.80;;;1.40;;
59512;SDS011;45330;51.634;5.562;2023-08-20T11:31:37;2.80;;;1.15;;
59512;SDS011;45330;51.634;5.562;2023-08-20T11:34:04;6.45;;;1.50;;
59512;SDS011;45330;51.634;5.562;2023-08-20T11:36:30;5.25;;;1.27;;
59512;SDS011;45330;51.634;5.562;2023-08-20T11:38:56;6.70;;;1.42;;
59512;SDS011;45330;51.634;5.562;2023-08-20T11:41:22;6.85;;;1.50;;
59512;SDS011;45330;51.634;5.562;2023-08-20T11:43:49;4.00;;;1.50;;
59512;SDS011;45330;51.634;5.562;2023-08-20T11:46:20;2.58;;;1.40;;
59512;SDS011;45330;51.634;5.562;2023-08-20T11:49:05;3.50;;;1.25;;
59512;SDS011;45330;51.634;5.562;2023-08-20T11:51:39;6.22;;;1.27;;
59512;SDS011;45330;51.634;5.562;2023-08-20T11:54:11;6.75;;;1.75;;
59512;SDS011;45330;51.634;5.562;2023-08-20T11:56:48;7.68;;;1.33;;
59512;SDS011;45330;51.634;5.562;2023-08-20T11:59:16;4.30;;;1.63;;
59512;SDS011;45330;51.634;5.562;2023-08-20T12:01:43;5.57;;;1.52;;
59512;SDS011;45330;51.634;5.562;2023-08-20T12:04:16;7.85;;;1.85;;
59512;SDS011;45330;51.634;5.562;2023-08-20T12:06:41;6.10;;;1.60;;
59512;SDS011;45330;51.634;5.562;2023-08-20T12:09:28;5.15;;;1.50;;
59512;SDS011;45330;51.634;5.562;2023-08-20T12:11:54;8.20;;;1.50;;
59512;SDS011;45330;51.634;5.562;2023-08-20T12:14:23;3.83;;;1.40;;
59512;SDS011;45330;51.634;5.562;2023-08-20T12:16:49;4.35;;;1.27;;
59512;SDS011;45330;51.634;5.562;2023-08-20T12:19:16;7.88;;;1.52;;
59512;SDS011;45330;51.634;5.562;2023-08-20T12:21:41;9.15;;;1.90;;
59512;SDS011;45330;51.634;5.562;2023-08-20T12:24:08;5.68;;;1.50;;
59512;SDS011;45330;51.634;5.562;2023-08-20T12:26:34;5.13;;;1.30;;
59512;SDS011;45330;51.634;5.562;2023-08-20T12:29:01;8.25;;;1.63;;
59512;SDS011;45330;51.634;5.562;2023-08-20T12:31:26;2.42;;;1.10;;
59512;SDS011;45330;51.634;5.562;2023-08-20T12:33:52;4.68;;;1.30;;
59512;SDS011;45330;51.634;5.562;2023-08-20T12:36:17;6.57;;;1.50;;
59512;SDS011;45330;51.634;5.562;2023-08-20T12:38:43;5.53;;;1.40;;
59512;SDS011;45330;51.634;5.562;2023-08-20T12:41:08;5.05;;;1.30;;
59512;SDS011;45330;51.634;5.562;2023-08-20T12:43:34;5.05;;;1.50;;
59512;SDS011;45330;51.634;5.562;2023-08-20T12:45:59;6.00;;;1.65;;
59512;SDS011;45330;51.634;5.562;2023-08-20T12:48:24;7.25;;;1.55;;
59512;SDS011;45330;51.634;5.562;2023-08-20T12:50:50;8.98;;;1.90;;
59512;SDS011;45330;51.634;5.562;2023-08-20T12:53:15;6.75;;;1.60;;
59512;SDS011;45330;51.634;5.562;2023-08-20T12:55:41;8.00;;;1.95;;
59512;SDS011;45330;51.634;5.562;2023-08-20T12:58:06;5.70;;;1.63;;
59512;SDS011;45330;51.634;5.562;2023-08-20T13:00:32;4.97;;;1.42;;
59512;SDS011;45330;51.634;5.562;2023-08-20T13:02:58;7.88;;;1.55;;
59512;SDS011;45330;51.634;5.562;2023-08-20T13:05:24;6.60;;;1.60;;
59512;SDS011;45330;51.634;5.562;2023-08-20T13:07:50;7.22;;;1.67;;
59512;SDS011;45330;51.634;5.562;2023-08-20T13:10:16;5.68;;;1.83;;
59512;SDS011;45330;51.634;5.562;2023-08-20T13:12:43;6.13;;;1.58;;
59512;SDS011;45330;51.634;5.562;2023-08-20T13:15:15;7.20;;;1.45;;
59512;SDS011;45330;51.634;5.562;2023-08-20T13:17:42;3.78;;;1.40;;
59512;SDS011;45330;51.634;5.562;2023-08-20T13:20:07;3.53;;;1.52;;
59512;SDS011;45330;51.634;5.562;2023-08-20T13:22:33;7.10;;;1.60;;
59512;SDS011;45330;51.634;5.562;2023-08-20T13:24:59;3.90;;;1.40;;
59512;SDS011;45330;51.634;5.562;2023-08-20T13:27:24;5.45;;;1.40;;
59512;SDS011;45330;51.634;5.562;2023-08-20T13:29:49;8.70;;;1.83;;
59512;SDS011;45330;51.634;5.562;2023-08-20T13:32:15;6.47;;;1.65;;
59512;SDS011;45330;51.634;5.562;2023-08-20T13:34:40;7.40;;;1.70;;
59512;SDS011;45330;51.634;5.562;2023-08-20T13:37:06;9.77;;;1.58;;
59512;SDS011;45330;51.634;5.562;2023-08-20T13:39:31;8.20;;;1.70;;
59512;SDS011;45330;51.634;5.562;2023-08-20T13:41:56;5.28;;;1.65;;
59512;SDS011;45330;51.634;5.562;2023-08-20T13:44:22;6.57;;;1.52;;
59512;SDS011;45330;51.634;5.562;2023-08-20T13:46:47;6.47;;;1.60;;
59512;SDS011;45330;51.634;5.562;2023-08-20T13:49:12;5.00;;;1.67;;
59512;SDS011;45330;51.634;5.562;2023-08-20T13:51:38;8.57;;;1.80;;
59512;SDS011;45330;51.634;5.562;2023-08-20T13:54:03;8.38;;;1.63;;
59512;SDS011;45330;51.634;5.562;2023-08-20T13:56:29;6.35;;;1.70;;
59512;SDS011;45330;51.634;5.562;2023-08-20T13:58:54;8.93;;;1.77;;
59512;SDS011;45330;51.634;5.562;2023-08-20T14:01:20;4.72;;;1.48;;
59512;SDS011;45330;51.634;5.562;2023-08-20T14:03:46;7.38;;;1.48;;
59512;SDS011;45330;51.634;5.562;2023-08-20T14:06:12;8.60;;;1.65;;
59512;SDS011;45330;51.634;5.562;2023-08-20T14:08:37;8.18;;;1.80;;
59512;SDS011;45330;51.634;5.562;2023-08-20T14:11:02;5.05;;;1.52;;
59512;SDS011;45330;51.634;5.562;2023-08-20T14:13:28;6.75;;;1.83;;
59512;SDS011;45330;51.634;5.562;2023-08-20T14:15:54;10.07;;;1.80;;
59512;SDS011;45330;51.634;5.562;2023-08-20T14:18:19;7.00;;;1.67;;
59512;SDS011;45330;51.634;5.562;2023-08-20T14:20:44;6.40;;;1.40;;
59512;SDS011;45330;51.634;5.562;2023-08-20T14:23:10;7.75;;;1.63;;
59512;SDS011;45330;51.634;5.562;2023-08-20T14:25:35;6.22;;;1.58;;
59512;SDS011;45330;51.634;5.562;2023-08-20T14:28:00;8.18;;;2.00;;
59512;SDS011;45330;51.634;5.562;2023-08-20T14:30:26;9.80;;;1.95;;
59512;SDS011;45330;51.634;5.562;2023-08-20T14:32:52;7.03;;;1.60;;
59512;SDS011;45330;51.634;5.562;2023-08-20T14:35:18;7.85;;;1.55;;
59512;SDS011;45330;51.634;5.562;2023-08-20T14:37:44;9.02;;;2.00;;
59512;SDS011;45330;51.634;5.562;2023-08-20T14:40:10;9.20;;;1.70;;
59512;SDS011;45330;51.634;5.562;2023-08-20T14:42:36;9.93;;;2.00;;
59512;SDS011;45330;51.634;5.562;2023-08-20T14:45:01;9.43;;;1.75;;
59512;SDS011;45330;51.634;5.562;2023-08-20T14:47:28;10.13;;;1.75;;
59512;SDS011;45330;51.634;5.562;2023-08-20T14:49:54;7.88;;;1.50;;